Willow Run Airport Detroit US
ICAO: KYIP
IATA: YIP
Category: Medium
Scheduled Services: No

Elevation: 716 ft
TransAlt. 18000 ft.

Airport Communications:
DETROIT APP/DEP:118.95
ASOS:132.35
ATIS:127.425
GND:121.75
TWR:125.275

KYIP Zoom In..

If you have problems with the map follow the link
https://www.worldairports.se/pages/airport.php?
ICAO=KYIP

Runways:

(A) RW 05L length 5996 ft width 160 ft
---- / hdg 53

(B) RW 05R length 7543 ft width 160 ft
ILS 109.50 / hdg 53

(C) RW 09 length 7292 ft width 160 ft
---- / hdg 95

(D) RW 14 length 6312 ft width 160 ft
---- / hdg 142

(E) RW 23L length 7543 ft width 160 ft
ILS 109.50 / hdg 233

(F) RW 23R length 5996 ft width 160 ft
---- / hdg 233

(G) RW 27 length 7292 ft width 160 ft
---- / hdg 275

(H) RW 32 length 6312 ft width 160 ft
---- / hdg 322

Location; KYIP
Day. 18 / Time. 23.53 Zulu
* Altimeter: 30.36
* Temperature: 07° c. 44.6°f.
* Wind from: 200° Speed 05 kn.
Dewpoint: 00° c.
Visibility: 6 Statute Miles.
Clouds: Clear (automated report).
Conditions: Haze.

KYIP 182353Z 20005KT 6SM HZ CLR 07/00 A3036 RMK AO2 SLP285 T00720000 10128 20072 56012


Wind From 200°
Speed 05 kn.

 
 
jpsmedia.com for Web Design worldairports.se 2018   terms of use